createdAt,value
2022-08-01T00:01:14.797Z,99.90
2022-08-01T00:03:42.178Z,99.90
2022-08-01T00:06:09.463Z,99.90
2022-08-01T00:08:36.582Z,99.90
2022-08-01T00:11:03.734Z,99.90
2022-08-01T00:13:31.374Z,99.90
2022-08-01T00:15:58.471Z,99.90
2022-08-01T00:18:25.574Z,99.90
2022-08-01T00:20:52.856Z,99.90
2022-08-01T00:23:19.973Z,99.90
2022-08-01T00:25:47.023Z,99.90
2022-08-01T00:28:14.634Z,99.90
2022-08-01T00:30:41.664Z,99.90
2022-08-01T00:33:08.871Z,99.90
2022-08-01T00:35:36.355Z,99.90
2022-08-01T00:38:03.759Z,99.90
2022-08-01T00:40:30.802Z,99.90
2022-08-01T00:42:58.507Z,99.90
2022-08-01T00:45:25.586Z,99.90
2022-08-01T00:47:55.288Z,99.90
2022-08-01T00:50:24.866Z,99.90
2022-08-01T00:52:52.869Z,99.90
2022-08-01T00:55:21.063Z,99.90
2022-08-01T00:58:05.008Z,99.90
2022-08-01T01:00:52.817Z,99.90
2022-08-01T01:03:43.309Z,99.90
2022-08-01T01:07:10.706Z,99.90
2022-08-01T01:10:01.352Z,99.90
2022-08-01T01:12:55.745Z,99.90
2022-08-01T01:15:42.525Z,99.90
2022-08-01T01:18:15.483Z,99.90
2022-08-01T01:20:50.585Z,99.90
2022-08-01T01:23:46.850Z,99.90
2022-08-01T01:27:08.425Z,99.90
2022-08-01T01:29:58.998Z,99.90
2022-08-01T01:32:42.769Z,99.90
2022-08-01T01:35:25.168Z,99.90
2022-08-01T01:38:02.650Z,99.90
2022-08-01T01:40:32.133Z,99.90
2022-08-01T01:43:00.838Z,99.90
2022-08-01T01:45:30.419Z,99.90
2022-08-01T01:47:59.672Z,99.90
2022-08-01T01:50:29.550Z,99.90
2022-08-01T01:52:59.049Z,99.90
2022-08-01T01:55:27.829Z,99.90
2022-08-01T01:57:57.746Z,99.90
2022-08-01T02:00:26.621Z,99.90
2022-08-01T02:02:57.811Z,99.90
2022-08-01T02:05:28.974Z,99.90
2022-08-01T02:12:39.951Z,99.90
2022-08-01T02:15:10.322Z,99.90
2022-08-01T02:17:49.728Z,99.90
2022-08-01T02:20:18.646Z,99.90
2022-08-01T02:22:55.985Z,99.90
2022-08-01T02:26:11.177Z,99.90
2022-08-01T02:28:38.988Z,99.90
2022-08-01T02:31:15.290Z,99.90
2022-08-01T02:33:49.625Z,99.90
2022-08-01T02:36:32.468Z,99.90
2022-08-01T02:39:07.539Z,99.90
2022-08-01T02:41:43.283Z,99.90
2022-08-01T02:44:21.095Z,99.90
2022-08-01T02:46:58.675Z,99.90
2022-08-01T02:49:40.204Z,99.90
2022-08-01T02:52:16.595Z,99.90
2022-08-01T02:54:48.659Z,99.90
2022-08-01T02:57:19.558Z,99.90
2022-08-01T02:59:50.741Z,99.90
2022-08-01T03:02:27.604Z,99.90
2022-08-01T03:04:58.397Z,99.90
2022-08-01T03:07:34.264Z,99.90
2022-08-01T03:19:47.159Z,99.90
2022-08-01T03:26:48.876Z,99.90
2022-08-01T03:29:26.510Z,99.90
2022-08-01T03:31:55.450Z,99.90
2022-08-01T03:43:51.956Z,99.90
2022-08-01T03:46:30.045Z,99.90
2022-08-01T03:49:07.382Z,99.90
2022-08-01T03:51:37.002Z,99.90
2022-08-01T03:54:07.614Z,99.90
2022-08-01T03:56:37.520Z,99.90
2022-08-01T03:59:06.799Z,99.90
2022-08-01T04:01:35.487Z,99.90
2022-08-01T04:04:06.165Z,99.90
2022-08-01T04:06:33.741Z,99.90
2022-08-01T04:09:01.865Z,99.90
2022-08-01T04:11:29.301Z,99.90
2022-08-01T04:13:57.781Z,99.90
2022-08-01T04:16:25.694Z,99.90
2022-08-01T04:18:53.169Z,99.90
2022-08-01T04:21:30.036Z,99.90
2022-08-01T04:24:05.898Z,99.90
2022-08-01T04:26:38.576Z,99.90
2022-08-01T04:29:09.126Z,99.90
2022-08-01T04:31:46.218Z,99.90
2022-08-01T04:34:21.174Z,99.90
2022-08-01T04:36:51.086Z,99.90
2022-08-01T04:39:20.867Z,99.90
2022-08-01T04:41:50.338Z,99.90
2022-08-01T04:44:17.583Z,99.90
2022-08-01T04:46:46.570Z,99.90
2022-08-01T04:49:17.638Z,99.90
2022-08-01T04:51:58.590Z,99.90
2022-08-01T04:54:31.152Z,99.90
2022-08-01T04:57:01.331Z,99.90
2022-08-01T04:59:41.452Z,99.90
2022-08-01T05:02:14.832Z,99.90
2022-08-01T05:04:44.811Z,99.90
2022-08-01T05:07:14.035Z,99.90
2022-08-01T05:09:43.070Z,99.90
2022-08-01T05:12:11.890Z,99.90
2022-08-01T05:14:39.960Z,99.90
2022-08-01T05:17:08.992Z,99.90
2022-08-01T05:19:39.245Z,99.90
2022-08-01T05:22:09.613Z,99.90
2022-08-01T05:24:40.276Z,99.90
2022-08-01T05:27:11.656Z,99.90
2022-08-01T05:29:44.568Z,99.90
2022-08-01T05:32:12.607Z,99.90
2022-08-01T05:34:39.584Z,99.90
2022-08-01T05:37:06.798Z,99.90
2022-08-01T05:39:34.215Z,99.90
2022-08-01T05:42:03.811Z,99.90
2022-08-01T05:44:31.178Z,99.90
2022-08-01T05:46:58.602Z,99.90
2022-08-01T05:49:26.074Z,99.90
2022-08-01T05:51:53.615Z,99.90
2022-08-01T05:54:21.117Z,99.90
2022-08-01T05:56:48.097Z,99.90
2022-08-01T05:59:15.377Z,99.90
2022-08-01T06:01:43.185Z,99.90
2022-08-01T06:04:12.469Z,99.90
2022-08-01T06:06:39.485Z,99.90
2022-08-01T06:09:06.970Z,99.90
2022-08-01T06:11:33.963Z,99.90
2022-08-01T06:14:01.077Z,99.90
2022-08-01T06:16:28.559Z,99.90
2022-08-01T06:18:56.971Z,99.90
2022-08-01T06:21:24.440Z,99.90
2022-08-01T06:23:51.869Z,99.90
2022-08-01T06:26:20.540Z,99.90
2022-08-01T06:28:48.135Z,99.90
2022-08-01T06:31:16.624Z,99.90
2022-08-01T06:33:43.685Z,99.90
2022-08-01T06:36:10.755Z,99.90
2022-08-01T06:38:38.933Z,99.90
2022-08-01T07:04:17.245Z,99.90
2022-08-01T07:06:44.956Z,99.90
2022-08-01T07:09:14.331Z,99.90
2022-08-01T07:11:42.424Z,99.90
2022-08-01T07:14:09.954Z,99.90
2022-08-01T07:16:37.222Z,99.90
2022-08-01T07:19:04.606Z,99.90
2022-08-01T07:47:37.387Z,99.90
2022-08-01T07:50:10.976Z,99.90
2022-08-01T07:52:38.437Z,99.90
2022-08-01T07:55:06.765Z,99.90
2022-08-01T07:57:34.264Z,99.90
2022-08-01T08:21:19.115Z,99.90
2022-08-01T08:38:19.922Z,97.60
2022-08-01T08:40:58.251Z,97.80
2022-08-01T08:43:27.121Z,97.10
2022-08-01T08:45:59.083Z,97.50
2022-08-01T08:48:32.194Z,97.10
2022-08-01T08:51:03.401Z,96.90
2022-08-01T08:53:34.927Z,96.40
2022-08-01T08:56:07.515Z,96.50
2022-08-01T08:58:38.707Z,96.20
2022-08-01T09:01:09.855Z,96.20
2022-08-01T09:03:37.665Z,95.90
2022-08-01T09:06:05.873Z,95.80
2022-08-01T09:08:34.590Z,95.70
2022-08-01T09:11:04.807Z,94.90
2022-08-01T09:13:32.062Z,95.30
2022-08-01T09:16:02.372Z,95.20
2022-08-01T09:18:45.783Z,95.00
2022-08-01T09:21:25.069Z,94.80
2022-08-01T09:23:55.264Z,94.00
2022-08-01T09:26:35.730Z,93.60
2022-08-01T09:29:10.351Z,94.00
2022-08-01T09:31:47.112Z,93.20
2022-08-01T09:34:28.833Z,93.20
2022-08-01T09:37:05.758Z,93.00
2022-08-01T09:39:41.095Z,92.10
2022-08-01T09:42:28.694Z,92.20
2022-08-01T09:44:57.354Z,91.90
2022-08-01T09:47:41.830Z,90.80
2022-08-01T09:50:12.027Z,91.90
2022-08-01T09:52:41.100Z,91.70
2022-08-01T09:55:09.363Z,90.90
2022-08-01T09:57:36.581Z,90.90
2022-08-01T10:00:35.697Z,91.40
2022-08-01T10:03:28.221Z,91.40
2022-08-01T10:05:55.818Z,90.30
2022-08-01T10:08:26.401Z,90.50
2022-08-01T10:11:13.023Z,90.10
2022-08-01T10:13:45.290Z,90.30
2022-08-01T10:16:15.780Z,89.00
2022-08-01T10:18:46.319Z,89.50
2022-08-01T10:21:15.886Z,88.60
2022-08-01T10:24:07.941Z,86.80
2022-08-01T10:26:39.965Z,88.20
2022-08-01T10:29:45.172Z,86.70
2022-08-01T10:31:56.075Z,88.20
2022-08-01T10:34:33.346Z,87.70
2022-08-01T10:37:02.494Z,86.30
2022-08-01T10:39:36.390Z,83.20
2022-08-01T10:42:10.699Z,80.50
2022-08-01T10:44:40.286Z,81.70
2022-08-01T10:47:19.470Z,78.30
2022-08-01T10:50:15.033Z,76.30
2022-08-01T10:53:15.954Z,77.10
2022-08-01T10:56:16.641Z,79.80
2022-08-01T10:58:48.807Z,80.80
2022-08-01T11:01:26.212Z,78.10
2022-08-01T11:04:41.646Z,76.20
2022-08-01T11:07:26.013Z,75.00
2022-08-01T11:10:24.255Z,75.20
2022-08-01T11:12:51.974Z,75.60
2022-08-01T11:15:31.871Z,75.30
2022-08-01T11:18:04.562Z,74.60
2022-08-01T11:20:41.666Z,75.20
2022-08-01T11:23:11.874Z,74.40
2022-08-01T11:26:06.224Z,76.10
2022-08-01T11:28:40.434Z,75.90
2022-08-01T11:31:11.199Z,74.10
2022-08-01T11:33:42.230Z,73.70
2022-08-01T11:36:14.666Z,73.40
2022-08-01T11:39:00.463Z,74.70
2022-08-01T11:41:37.918Z,74.60
2022-08-01T11:44:11.691Z,74.20
2022-08-01T11:47:09.305Z,74.50
2022-08-01T11:49:49.729Z,74.30
2022-08-01T11:52:25.055Z,75.10
2022-08-01T11:55:10.131Z,75.40
2022-08-01T11:57:39.598Z,76.40
2022-08-01T12:00:17.444Z,77.10
2022-08-01T12:02:47.825Z,77.80
2022-08-01T12:05:21.485Z,77.90
2022-08-01T12:07:54.765Z,78.30
2022-08-01T12:10:33.225Z,77.90
2022-08-01T12:13:06.634Z,78.10
2022-08-01T12:15:38.609Z,78.40
2022-08-01T12:18:08.883Z,78.60
2022-08-01T12:20:55.753Z,78.40
2022-08-01T12:23:25.152Z,79.00
2022-08-01T12:25:53.425Z,79.70
2022-08-01T12:28:21.234Z,80.00
2022-08-01T12:30:50.255Z,80.10
2022-08-01T12:33:22.560Z,80.30
2022-08-01T12:35:50.223Z,80.60
2022-08-01T12:38:26.081Z,80.30
2022-08-01T12:40:54.896Z,79.80
2022-08-01T12:43:29.406Z,80.70
2022-08-01T12:46:04.453Z,81.10
2022-08-01T12:48:32.751Z,81.20
2022-08-01T12:51:02.414Z,80.90
2022-08-01T12:53:40.147Z,81.00
2022-08-01T12:56:11.357Z,81.20
2022-08-01T12:58:40.000Z,80.90
2022-08-01T13:01:13.263Z,81.50
2022-08-01T13:03:41.921Z,81.20
2022-08-01T13:06:16.200Z,81.60
2022-08-01T13:08:46.210Z,81.30
2022-08-01T13:11:17.699Z,81.50
2022-08-01T13:13:52.896Z,81.80
2022-08-01T13:16:43.228Z,81.80
2022-08-01T13:19:15.455Z,82.40
2022-08-01T13:21:57.348Z,82.50
2022-08-01T13:24:30.262Z,83.20
2022-08-01T13:27:05.208Z,83.30
2022-08-01T13:29:42.553Z,83.00
2022-08-01T13:32:28.561Z,83.40
2022-08-01T13:35:09.713Z,83.10
2022-08-01T13:37:38.797Z,83.50
2022-08-01T13:40:11.574Z,83.00
2022-08-01T13:42:39.998Z,83.00
2022-08-01T13:45:13.661Z,83.40
2022-08-01T13:48:03.627Z,83.10
2022-08-01T13:50:32.618Z,82.80
2022-08-01T13:53:00.052Z,82.10
2022-08-01T13:55:31.085Z,81.10
2022-08-01T13:58:06.107Z,81.00
2022-08-01T14:00:33.406Z,80.70
2022-08-01T14:03:00.479Z,79.80
2022-08-01T14:05:28.977Z,79.30
2022-08-01T14:07:56.365Z,79.10
2022-08-01T14:10:25.728Z,79.70
2022-08-01T14:12:53.275Z,80.40
2022-08-01T14:15:38.859Z,80.20
2022-08-01T14:18:21.883Z,80.40
2022-08-01T14:20:49.149Z,79.20
2022-08-01T14:23:18.264Z,79.20
2022-08-01T14:26:03.045Z,79.00
2022-08-01T14:28:34.286Z,79.10
2022-08-01T14:31:02.481Z,78.50
2022-08-01T14:33:31.819Z,79.20
2022-08-01T14:36:28.466Z,79.20
2022-08-01T14:38:49.578Z,79.50
2022-08-01T14:41:17.309Z,80.40
2022-08-01T14:43:44.882Z,81.60
2022-08-01T14:46:13.554Z,81.20
2022-08-01T14:48:41.859Z,80.60
2022-08-01T14:51:09.761Z,80.80
2022-08-01T14:53:37.746Z,79.80
2022-08-01T14:56:05.978Z,79.90
2022-08-01T14:58:34.387Z,80.30
2022-08-01T15:01:05.387Z,79.90
2022-08-01T15:03:33.056Z,79.20
2022-08-01T15:06:00.618Z,79.50
2022-08-01T15:08:28.438Z,79.80
2022-08-01T15:10:56.271Z,78.70
2022-08-01T15:13:23.423Z,78.30
2022-08-01T15:15:53.059Z,78.30
2022-08-01T15:18:20.615Z,78.10
2022-08-01T15:20:47.802Z,78.70
2022-08-01T15:23:15.439Z,78.40
2022-08-01T15:25:43.016Z,79.50
2022-08-01T15:28:11.332Z,79.60
2022-08-01T15:30:39.806Z,79.70
2022-08-01T15:33:07.879Z,80.60
2022-08-01T15:35:34.993Z,80.50
2022-08-01T15:38:04.308Z,80.60
2022-08-01T15:40:35.286Z,80.80
2022-08-01T15:43:03.683Z,80.70
2022-08-01T15:45:47.427Z,79.70
2022-08-01T15:48:17.239Z,78.70
2022-08-01T15:50:44.670Z,77.70
2022-08-01T15:53:12.465Z,78.60
2022-08-01T15:55:40.588Z,78.60
2022-08-01T15:58:08.388Z,79.90
2022-08-01T16:00:40.131Z,80.70
2022-08-01T16:03:10.242Z,80.80
2022-08-01T16:05:43.175Z,80.30
2022-08-01T16:08:13.875Z,80.20
2022-08-01T16:10:42.724Z,80.40
2022-08-01T16:13:10.265Z,80.70
2022-08-01T16:15:41.748Z,81.50
2022-08-01T16:18:13.073Z,82.20
2022-08-01T16:20:45.594Z,82.50
2022-08-01T16:23:15.510Z,83.00
2022-08-01T16:25:46.214Z,83.50
2022-08-01T16:28:14.234Z,83.70
2022-08-01T16:30:48.585Z,84.00
2022-08-01T16:33:53.095Z,83.20
2022-08-01T16:36:17.470Z,83.80
2022-08-01T16:38:46.407Z,84.10
2022-08-01T16:41:19.727Z,84.50
2022-08-01T16:43:53.154Z,84.60
2022-08-01T16:46:26.841Z,84.80
2022-08-01T16:48:55.170Z,84.90
2022-08-01T16:51:22.687Z,84.30
2022-08-01T16:53:50.157Z,84.80
2022-08-01T16:56:18.166Z,84.10
2022-08-01T16:58:45.434Z,84.30
2022-08-01T17:02:03.313Z,84.50
2022-08-01T17:04:02.553Z,85.00
2022-08-01T17:06:30.393Z,85.20
2022-08-01T17:08:58.697Z,86.70
2022-08-01T17:11:26.567Z,87.10
2022-08-01T17:13:53.752Z,87.70
2022-08-01T17:16:21.230Z,87.60
2022-08-01T17:18:49.174Z,88.10
2022-08-01T17:21:16.782Z,88.40
2022-08-01T17:23:44.683Z,88.70
2022-08-01T17:26:13.038Z,88.90
2022-08-01T17:28:40.390Z,89.20
2022-08-01T17:31:10.380Z,89.40
2022-08-01T17:33:45.665Z,89.50
2022-08-01T17:36:14.463Z,89.70
2022-08-01T17:38:42.077Z,90.00
2022-08-01T17:41:09.477Z,90.10
2022-08-01T17:43:36.615Z,90.20
2022-08-01T17:46:05.911Z,90.40
2022-08-01T17:48:33.111Z,90.60
2022-08-01T17:51:00.329Z,90.80
2022-08-01T17:53:28.905Z,90.80
2022-08-01T17:56:07.886Z,91.00
2022-08-01T17:58:51.069Z,91.10
2022-08-01T18:01:20.702Z,91.20
2022-08-01T18:03:48.889Z,91.20
2022-08-01T18:06:19.084Z,91.30
2022-08-01T18:08:47.969Z,91.40
2022-08-01T18:11:17.329Z,91.40
2022-08-01T18:13:45.422Z,91.50
2022-08-01T18:16:13.374Z,91.70
2022-08-01T18:18:43.988Z,91.80
2022-08-01T18:21:12.485Z,91.80
2022-08-01T18:23:39.681Z,92.00
2022-08-01T18:26:08.739Z,92.20
2022-08-01T18:28:42.005Z,92.40
2022-08-01T18:31:20.356Z,92.50
2022-08-01T18:33:48.647Z,92.70
2022-08-01T18:36:31.855Z,92.80
2022-08-01T18:39:06.362Z,93.00
2022-08-01T18:41:39.213Z,93.10
2022-08-01T18:44:08.967Z,93.20
2022-08-01T18:46:39.128Z,93.20
2022-08-01T18:49:10.089Z,93.30
2022-08-01T18:51:44.415Z,93.40
2022-08-01T18:54:15.279Z,93.40
2022-08-01T18:56:45.128Z,93.50
2022-08-01T18:59:14.146Z,93.60
2022-08-01T19:01:42.319Z,93.60
2022-08-01T19:04:14.103Z,93.60
2022-08-01T19:06:43.598Z,93.70
2022-08-01T19:09:20.779Z,93.80
2022-08-01T19:11:50.243Z,93.80
2022-08-01T19:14:17.914Z,93.90
2022-08-01T19:16:47.116Z,94.00
2022-08-01T19:19:14.919Z,94.00
2022-08-01T19:21:55.490Z,94.10
2022-08-01T19:24:29.464Z,94.30
2022-08-01T19:27:08.958Z,94.30
2022-08-01T19:32:51.165Z,94.50
2022-08-01T19:35:18.690Z,94.50
2022-08-01T19:38:02.804Z,94.70
2022-08-01T19:40:48.906Z,94.70
2022-08-01T19:43:33.388Z,94.80
2022-08-01T19:46:05.712Z,94.80
2022-08-01T19:48:38.564Z,94.80
2022-08-01T19:51:12.297Z,94.90
2022-08-01T19:53:44.668Z,95.00
2022-08-01T19:56:14.255Z,95.10
2022-08-01T19:58:43.112Z,95.10
2022-08-01T20:01:16.921Z,95.20
2022-08-01T20:03:49.242Z,95.20
2022-08-01T20:06:16.865Z,95.30
2022-08-01T20:08:45.337Z,95.40
2022-08-01T20:11:14.657Z,95.70
2022-08-01T20:13:44.366Z,95.50
2022-08-01T20:16:11.945Z,95.60
2022-08-01T20:18:40.448Z,95.60
2022-08-01T20:21:12.470Z,95.70
2022-08-01T20:23:43.361Z,95.80
2022-08-01T20:26:14.081Z,95.90
2022-08-01T20:28:46.493Z,95.90
2022-08-01T20:31:20.213Z,96.00
2022-08-01T20:33:49.779Z,96.10
2022-08-01T20:36:24.989Z,96.10
2022-08-01T20:38:56.546Z,96.20
2022-08-01T20:41:27.659Z,96.20
2022-08-01T20:43:59.569Z,96.30
2022-08-01T20:46:29.739Z,96.30
2022-08-01T20:48:58.820Z,96.40
2022-08-01T20:51:28.403Z,96.40
2022-08-01T20:53:56.550Z,96.50
2022-08-01T20:56:36.500Z,96.60
2022-08-01T20:59:55.144Z,96.60
2022-08-01T21:02:49.005Z,96.70
2022-08-01T21:05:31.930Z,96.90
2022-08-01T21:08:23.123Z,97.00
2022-08-01T21:10:58.058Z,97.20
2022-08-01T21:13:48.354Z,97.20
2022-08-01T21:24:10.310Z,97.50
2022-08-01T21:26:39.126Z,97.50
2022-08-01T21:29:10.449Z,97.60
2022-08-01T21:31:41.431Z,97.60
2022-08-01T21:34:24.376Z,97.70
2022-08-01T21:36:53.254Z,97.70
2022-08-01T21:39:21.654Z,97.80
2022-08-01T21:41:56.702Z,97.90
2022-08-01T21:44:35.863Z,97.90
2022-08-01T21:47:04.403Z,97.90
2022-08-01T21:49:32.366Z,98.00
2022-08-01T21:52:12.193Z,98.10
2022-08-01T21:55:15.493Z,98.10
2022-08-01T21:58:00.426Z,98.20
2022-08-01T22:00:33.507Z,98.30
2022-08-01T22:06:24.999Z,98.50
2022-08-01T22:08:59.405Z,98.60
2022-08-01T22:11:30.846Z,98.70
2022-08-01T22:14:06.127Z,98.70
2022-08-01T22:16:40.900Z,98.70
2022-08-01T22:19:44.195Z,98.90
2022-08-01T22:22:04.616Z,98.90
2022-08-01T22:24:51.575Z,99.00
2022-08-01T22:28:05.947Z,99.10
2022-08-01T22:30:17.724Z,99.10
2022-08-01T22:33:07.239Z,99.20
2022-08-01T22:35:36.806Z,99.20
2022-08-01T22:38:07.882Z,99.20
2022-08-01T22:40:47.856Z,99.30
2022-08-01T22:43:41.846Z,99.40
2022-08-01T22:46:32.698Z,99.50
2022-08-01T22:49:09.267Z,99.60
2022-08-01T22:52:07.633Z,99.70
2022-08-01T22:54:41.561Z,99.80
2022-08-01T22:57:23.464Z,99.90
2022-08-01T23:00:04.539Z,99.90
2022-08-01T23:02:38.249Z,99.90
2022-08-01T23:05:12.143Z,99.90
2022-08-01T23:07:49.626Z,99.90
2022-08-01T23:10:20.718Z,99.90
2022-08-01T23:12:51.703Z,99.90
2022-08-01T23:15:21.984Z,99.90
2022-08-01T23:17:51.166Z,99.90
2022-08-01T23:20:18.990Z,99.90
2022-08-01T23:22:48.022Z,99.90
2022-08-01T23:25:17.059Z,99.90
2022-08-01T23:27:54.286Z,99.90
2022-08-01T23:30:35.170Z,99.90
2022-08-01T23:33:03.735Z,99.90
2022-08-01T23:35:31.306Z,99.90
2022-08-01T23:38:02.854Z,99.90
2022-08-01T23:40:34.674Z,99.90
2022-08-01T23:43:04.539Z,99.90
2022-08-01T23:46:02.623Z,99.90
2022-08-01T23:48:20.984Z,99.90
2022-08-01T23:50:48.358Z,99.90
2022-08-01T23:53:15.846Z,99.90
2022-08-01T23:55:44.537Z,99.90
2022-08-01T23:58:12.002Z,99.90
